Trans Exeter — 9HA2572 — position and weather

sailwx.info

Track history (hours):
 
Tides and Currents Weather Stations Pressure Air Temp Water Temp Dewpoint Dewpoint Depression Visibility Wind Speed Wind Dir Waves Ship Positions

Trans Exeter

Last reported at 2015-Jul-03 23:33 UTC. Time now 2015-Jul-03 23:47 UTC.
Position N 36°38' E 014°36'.

Length 118 m; draft 7 m.

Type: Ship (hazmat cat C). MMSI: 248908000.

Date/timePositionNaut miles runAvg speedWind from/ knotsBaromVisibWave heightAir tempDewpointWater temp
2015-Jul-03 23:33N 36°38' E 014°36'1514.5
2015-Jul-03 22:33N 36°34' E 014°53'1414.4
2015-Jul-03 21:33N 36°32' E 015°11'1414.7
2015-Jul-03 20:33N 36°31' E 015°29'1414.0
2015-Jul-03 19:33N 36°31' E 015°46'  
2015-Jun-29 06:10N 40°52' E 028°29'19 2.7
2015-Jun-28 23:25N 40°57' E 028°53'8 9.7
2015-Jun-28 22:32N 40°52' E 029°02'1414.0
2015-Jun-28 21:33N 40°46' E 029°18'6 6.2
2015-Jun-28 20:33N 40°42' E 029°25'0 0.0
2015-Jun-28 19:33N 40°42' E 029°25'0 0.0
2015-Jun-28 18:33N 40°42' E 029°25'0 0.0
2015-Jun-28 17:33N 40°42' E 029°25'0 0.0
2015-Jun-28 16:33N 40°42' E 029°25'0 0.0
2015-Jun-28 15:33N 40°42' E 029°25'0 0.0
2015-Jun-28 14:33N 40°42' E 029°25'0 0.0
2015-Jun-28 13:33N 40°42' E 029°25'0 0.0
2015-Jun-28 12:33N 40°42' E 029°25'0 0.0
2015-Jun-28 11:33N 40°42' E 029°25'0 0.0
2015-Jun-28 10:33N 40°42' E 029°25'7 0.1
2015-Jun-26 13:33N 40°46' E 029°32'0 0.0
2015-Jun-26 12:27N 40°46' E 029°32'0 0.0
2015-Jun-26 11:25N 40°46' E 029°32'0 0.0
2015-Jun-26 10:33N 40°46' E 029°32'2 2.0
2015-Jun-26 09:33N 40°45' E 029°29'1010.5
2015-Jun-26 08:33N 40°43' E 029°15'1414.4
2015-Jun-26 07:33N 40°43' E 028°57'27212.2
2015-Jun-25 09:10N 37°48' E 024°26'5314.0
2015-Jun-25 05:24N 37°06' E 023°47'1513.9
2015-Jun-25 04:19N 36°53' E 023°37'  
Track history (hours):
 
Tides and Currents Weather Stations Pressure Air Temp Water Temp Dewpoint Dewpoint Depression Visibility Wind Speed Wind Dir Waves Ship Positions

Trans Exeter

Last reported at 2015-Jul-03 23:33 UTC. Time now 2015-Jul-03 23:47 UTC.
Position N 36°38' E 014°36'.

Length 118 m; draft 7 m.

Type: Ship (hazmat cat C). MMSI: 248908000.

Date/timePositionNaut miles runAvg speedWind from/ knotsBaromVisibWave heightAir tempDewpointWater temp
2015-Jul-03 23:33N 36°38' E 014°36'1514.5
2015-Jul-03 22:33N 36°34' E 014°53'1414.4
2015-Jul-03 21:33N 36°32' E 015°11'1414.7
2015-Jul-03 20:33N 36°31' E 015°29'1414.0
2015-Jul-03 19:33N 36°31' E 015°46'  
2015-Jun-29 06:10N 40°52' E 028°29'19 2.7
2015-Jun-28 23:25N 40°57' E 028°53'8 9.7
2015-Jun-28 22:32N 40°52' E 029°02'1414.0
2015-Jun-28 21:33N 40°46' E 029°18'6 6.2
2015-Jun-28 20:33N 40°42' E 029°25'0 0.0
2015-Jun-28 19:33N 40°42' E 029°25'0 0.0
2015-Jun-28 18:33N 40°42' E 029°25'0 0.0
2015-Jun-28 17:33N 40°42' E 029°25'0 0.0
2015-Jun-28 16:33N 40°42' E 029°25'0 0.0
2015-Jun-28 15:33N 40°42' E 029°25'0 0.0
2015-Jun-28 14:33N 40°42' E 029°25'0 0.0
2015-Jun-28 13:33N 40°42' E 029°25'0 0.0
2015-Jun-28 12:33N 40°42' E 029°25'0 0.0
2015-Jun-28 11:33N 40°42' E 029°25'0 0.0
2015-Jun-28 10:33N 40°42' E 029°25'7 0.1
2015-Jun-26 13:33N 40°46' E 029°32'0 0.0
2015-Jun-26 12:27N 40°46' E 029°32'0 0.0
2015-Jun-26 11:25N 40°46' E 029°32'0 0.0
2015-Jun-26 10:33N 40°46' E 029°32'2 2.0
2015-Jun-26 09:33N 40°45' E 029°29'1010.5
2015-Jun-26 08:33N 40°43' E 029°15'1414.4
2015-Jun-26 07:33N 40°43' E 028°57'27212.2
2015-Jun-25 09:10N 37°48' E 024°26'5314.0
2015-Jun-25 05:24N 37°06' E 023°47'1513.9
2015-Jun-25 04:19N 36°53' E 023°37'  

Dump ship's entire track history